sensor_id;sensor_type;location;lat;lon;timestamp;P1;durP1;ratioP1;P2;durP2;ratioP2
47167;SDS011;32931;47.778;17.806;2023-09-19T00:00:21;21.35;;;6.70;;
47167;SDS011;32931;47.778;17.806;2023-09-19T00:02:52;19.70;;;6.88;;
47167;SDS011;32931;47.778;17.806;2023-09-19T00:05:19;27.77;;;7.07;;
47167;SDS011;32931;47.778;17.806;2023-09-19T00:07:50;19.05;;;6.85;;
47167;SDS011;32931;47.778;17.806;2023-09-19T00:10:20;16.15;;;6.65;;
47167;SDS011;32931;47.778;17.806;2023-09-19T00:12:47;16.02;;;6.95;;
47167;SDS011;32931;47.778;17.806;2023-09-19T00:15:13;24.67;;;7.38;;
47167;SDS011;32931;47.778;17.806;2023-09-19T00:17:43;21.58;;;7.07;;
47167;SDS011;32931;47.778;17.806;2023-09-19T00:20:09;25.05;;;7.40;;
47167;SDS011;32931;47.778;17.806;2023-09-19T00:22:41;23.20;;;7.75;;
47167;SDS011;32931;47.778;17.806;2023-09-19T00:25:11;25.80;;;7.17;;
47167;SDS011;32931;47.778;17.806;2023-09-19T00:27:40;22.40;;;7.30;;
47167;SDS011;32931;47.778;17.806;2023-09-19T00:30:08;25.05;;;9.18;;
47167;SDS011;32931;47.778;17.806;2023-09-19T00:32:40;25.25;;;8.43;;
47167;SDS011;32931;47.778;17.806;2023-09-19T00:35:10;22.65;;;8.85;;
47167;SDS011;32931;47.778;17.806;2023-09-19T00:37:36;20.60;;;8.80;;
47167;SDS011;32931;47.778;17.806;2023-09-19T00:40:05;24.80;;;8.73;;
47167;SDS011;32931;47.778;17.806;2023-09-19T00:42:36;21.35;;;7.80;;
47167;SDS011;32931;47.778;17.806;2023-09-19T00:45:03;24.15;;;7.57;;
47167;SDS011;32931;47.778;17.806;2023-09-19T00:47:30;21.52;;;7.13;;
47167;SDS011;32931;47.778;17.806;2023-09-19T00:49:57;17.80;;;6.28;;
47167;SDS011;32931;47.778;17.806;2023-09-19T00:52:24;17.65;;;5.82;;
47167;SDS011;32931;47.778;17.806;2023-09-19T00:54:50;18.05;;;5.50;;
47167;SDS011;32931;47.778;17.806;2023-09-19T00:57:17;17.27;;;4.60;;
47167;SDS011;32931;47.778;17.806;2023-09-19T00:59:45;17.85;;;4.72;;
47167;SDS011;32931;47.778;17.806;2023-09-19T01:02:15;23.00;;;4.50;;
47167;SDS011;32931;47.778;17.806;2023-09-19T01:04:42;13.65;;;4.60;;
47167;SDS011;32931;47.778;17.806;2023-09-19T01:07:09;15.63;;;4.45;;
47167;SDS011;32931;47.778;17.806;2023-09-19T01:09:36;16.48;;;4.30;;
47167;SDS011;32931;47.778;17.806;2023-09-19T01:12:02;23.88;;;4.72;;
47167;SDS011;32931;47.778;17.806;2023-09-19T01:14:36;10.85;;;3.65;;
47167;SDS011;32931;47.778;17.806;2023-09-19T01:17:14;10.52;;;3.53;;
47167;SDS011;32931;47.778;17.806;2023-09-19T01:31:02;8.00;;;2.10;;
47167;SDS011;32931;47.778;17.806;2023-09-19T01:33:48;10.95;;;1.80;;
47167;SDS011;32931;47.778;17.806;2023-09-19T01:36:42;5.80;;;1.77;;
47167;SDS011;32931;47.778;17.806;2023-09-19T01:39:11;7.07;;;1.80;;
47167;SDS011;32931;47.778;17.806;2023-09-19T01:41:56;7.97;;;2.10;;
47167;SDS011;32931;47.778;17.806;2023-09-19T01:44:44;8.68;;;2.20;;
47167;SDS011;32931;47.778;17.806;2023-09-19T01:47:25;11.20;;;2.15;;
47167;SDS011;32931;47.778;17.806;2023-09-19T01:49:58;12.45;;;2.30;;
47167;SDS011;32931;47.778;17.806;2023-09-19T01:52:38;6.82;;;1.63;;
47167;SDS011;32931;47.778;17.806;2023-09-19T01:55:11;8.75;;;1.55;;
47167;SDS011;32931;47.778;17.806;2023-09-19T02:00:30;5.60;;;1.45;;
47167;SDS011;32931;47.778;17.806;2023-09-19T02:03:01;6.38;;;1.42;;
47167;SDS011;32931;47.778;17.806;2023-09-19T02:05:29;8.48;;;1.30;;
47167;SDS011;32931;47.778;17.806;2023-09-19T02:07:55;5.25;;;1.38;;
47167;SDS011;32931;47.778;17.806;2023-09-19T02:10:22;3.80;;;1.10;;
47167;SDS011;32931;47.778;17.806;2023-09-19T02:12:49;5.18;;;1.10;;
47167;SDS011;32931;47.778;17.806;2023-09-19T02:15:16;13.63;;;1.30;;
47167;SDS011;32931;47.778;17.806;2023-09-19T02:17:42;5.35;;;1.30;;
47167;SDS011;32931;47.778;17.806;2023-09-19T02:20:10;4.97;;;1.63;;
47167;SDS011;32931;47.778;17.806;2023-09-19T02:22:43;9.35;;;1.35;;
47167;SDS011;32931;47.778;17.806;2023-09-19T02:25:09;3.85;;;1.13;;
47167;SDS011;32931;47.778;17.806;2023-09-19T02:27:36;4.63;;;1.42;;
47167;SDS011;32931;47.778;17.806;2023-09-19T02:30:03;7.32;;;1.60;;
47167;SDS011;32931;47.778;17.806;2023-09-19T02:32:31;5.53;;;1.30;;
47167;SDS011;32931;47.778;17.806;2023-09-19T02:35:01;2.90;;;1.10;;
47167;SDS011;32931;47.778;17.806;2023-09-19T02:37:27;6.55;;;1.27;;
47167;SDS011;32931;47.778;17.806;2023-09-19T02:39:53;8.52;;;1.45;;
47167;SDS011;32931;47.778;17.806;2023-09-19T02:42:20;2.95;;;1.10;;
47167;SDS011;32931;47.778;17.806;2023-09-19T02:44:46;2.33;;;0.80;;
47167;SDS011;32931;47.778;17.806;2023-09-19T02:47:13;5.97;;;1.13;;
47167;SDS011;32931;47.778;17.806;2023-09-19T02:49:40;2.75;;;0.85;;
47167;SDS011;32931;47.778;17.806;2023-09-19T02:52:08;3.28;;;1.00;;
47167;SDS011;32931;47.778;17.806;2023-09-19T02:54:34;3.50;;;0.98;;
47167;SDS011;32931;47.778;17.806;2023-09-19T02:57:00;2.08;;;0.77;;
47167;SDS011;32931;47.778;17.806;2023-09-19T02:59:26;3.50;;;0.85;;
47167;SDS011;32931;47.778;17.806;2023-09-19T03:01:54;1.70;;;0.70;;
47167;SDS011;32931;47.778;17.806;2023-09-19T03:04:20;2.33;;;0.73;;
47167;SDS011;32931;47.778;17.806;2023-09-19T03:06:46;4.57;;;0.70;;
47167;SDS011;32931;47.778;17.806;2023-09-19T03:09:14;2.65;;;0.90;;
47167;SDS011;32931;47.778;17.806;2023-09-19T03:11:41;1.83;;;0.70;;
47167;SDS011;32931;47.778;17.806;2023-09-19T03:14:08;1.95;;;0.70;;
47167;SDS011;32931;47.778;17.806;2023-09-19T03:16:35;3.63;;;0.80;;
47167;SDS011;32931;47.778;17.806;2023-09-19T03:19:03;2.33;;;0.80;;
47167;SDS011;32931;47.778;17.806;2023-09-19T03:21:29;2.33;;;0.88;;
47167;SDS011;32931;47.778;17.806;2023-09-19T03:23:56;5.80;;;1.40;;
47167;SDS011;32931;47.778;17.806;2023-09-19T03:26:22;1.90;;;0.70;;
47167;SDS011;32931;47.778;17.806;2023-09-19T03:28:48;5.57;;;1.00;;
47167;SDS011;32931;47.778;17.806;2023-09-19T03:31:14;2.92;;;0.82;;
47167;SDS011;32931;47.778;17.806;2023-09-19T03:33:40;3.78;;;1.00;;
47167;SDS011;32931;47.778;17.806;2023-09-19T03:36:07;2.38;;;0.80;;
47167;SDS011;32931;47.778;17.806;2023-09-19T03:38:33;3.53;;;1.02;;
47167;SDS011;32931;47.778;17.806;2023-09-19T03:41:00;6.18;;;1.20;;
47167;SDS011;32931;47.778;17.806;2023-09-19T03:43:27;4.05;;;0.80;;
47167;SDS011;32931;47.778;17.806;2023-09-19T03:45:53;10.05;;;1.10;;
47167;SDS011;32931;47.778;17.806;2023-09-19T03:48:20;21.88;;;1.40;;
47167;SDS011;32931;47.778;17.806;2023-09-19T03:50:47;17.67;;;1.50;;
47167;SDS011;32931;47.778;17.806;2023-09-19T03:53:13;9.23;;;1.30;;
47167;SDS011;32931;47.778;17.806;2023-09-19T03:55:39;9.43;;;1.50;;
47167;SDS011;32931;47.778;17.806;2023-09-19T03:58:06;7.85;;;1.00;;
47167;SDS011;32931;47.778;17.806;2023-09-19T04:00:32;33.08;;;2.53;;
47167;SDS011;32931;47.778;17.806;2023-09-19T04:02:59;9.02;;;1.75;;
47167;SDS011;32931;47.778;17.806;2023-09-19T04:05:31;9.80;;;1.65;;
47167;SDS011;32931;47.778;17.806;2023-09-19T04:07:58;11.32;;;1.73;;
47167;SDS011;32931;47.778;17.806;2023-09-19T04:10:24;8.05;;;1.45;;
47167;SDS011;32931;47.778;17.806;2023-09-19T04:12:54;9.10;;;1.70;;
47167;SDS011;32931;47.778;17.806;2023-09-19T04:15:21;11.57;;;1.50;;
47167;SDS011;32931;47.778;17.806;2023-09-19T04:17:50;6.55;;;1.73;;
47167;SDS011;32931;47.778;17.806;2023-09-19T04:20:17;14.55;;;1.83;;
47167;SDS011;32931;47.778;17.806;2023-09-19T04:22:45;7.78;;;1.88;;
47167;SDS011;32931;47.778;17.806;2023-09-19T04:25:12;17.38;;;2.50;;
47167;SDS011;32931;47.778;17.806;2023-09-19T04:27:39;14.73;;;2.42;;
47167;SDS011;32931;47.778;17.806;2023-09-19T04:30:06;17.17;;;2.38;;
47167;SDS011;32931;47.778;17.806;2023-09-19T04:32:37;11.73;;;2.42;;
47167;SDS011;32931;47.778;17.806;2023-09-19T04:35:06;9.82;;;2.33;;
47167;SDS011;32931;47.778;17.806;2023-09-19T04:37:40;8.45;;;2.05;;
47167;SDS011;32931;47.778;17.806;2023-09-19T04:42:40;7.45;;;1.80;;
47167;SDS011;32931;47.778;17.806;2023-09-19T04:45:07;9.20;;;2.00;;
47167;SDS011;32931;47.778;17.806;2023-09-19T04:47:36;4.40;;;1.90;;
47167;SDS011;32931;47.778;17.806;2023-09-19T04:50:07;5.82;;;1.90;;
47167;SDS011;32931;47.778;17.806;2023-09-19T04:52:38;10.35;;;1.92;;
47167;SDS011;32931;47.778;17.806;2023-09-19T04:55:17;7.88;;;1.60;;
47167;SDS011;32931;47.778;17.806;2023-09-19T04:57:48;4.53;;;1.70;;
47167;SDS011;32931;47.778;17.806;2023-09-19T05:00:19;9.73;;;1.90;;
47167;SDS011;32931;47.778;17.806;2023-09-19T05:02:49;5.05;;;1.75;;
47167;SDS011;32931;47.778;17.806;2023-09-19T05:05:21;4.97;;;1.70;;
47167;SDS011;32931;47.778;17.806;2023-09-19T05:07:49;4.53;;;1.67;;
47167;SDS011;32931;47.778;17.806;2023-09-19T05:10:16;3.45;;;1.50;;
47167;SDS011;32931;47.778;17.806;2023-09-19T05:12:45;4.32;;;1.52;;
47167;SDS011;32931;47.778;17.806;2023-09-19T05:15:14;5.30;;;1.70;;
47167;SDS011;32931;47.778;17.806;2023-09-19T05:17:40;7.75;;;1.63;;
47167;SDS011;32931;47.778;17.806;2023-09-19T05:20:06;6.07;;;1.58;;
47167;SDS011;32931;47.778;17.806;2023-09-19T05:22:44;6.40;;;1.88;;
47167;SDS011;32931;47.778;17.806;2023-09-19T05:25:11;4.70;;;1.55;;
47167;SDS011;32931;47.778;17.806;2023-09-19T05:27:42;5.13;;;1.80;;
47167;SDS011;32931;47.778;17.806;2023-09-19T05:30:09;4.65;;;1.50;;
47167;SDS011;32931;47.778;17.806;2023-09-19T05:32:36;3.60;;;1.20;;
47167;SDS011;32931;47.778;17.806;2023-09-19T05:35:02;5.70;;;1.92;;
47167;SDS011;32931;47.778;17.806;2023-09-19T05:37:28;4.93;;;2.33;;
47167;SDS011;32931;47.778;17.806;2023-09-19T05:39:55;5.65;;;1.67;;
47167;SDS011;32931;47.778;17.806;2023-09-19T05:42:21;6.30;;;1.77;;
47167;SDS011;32931;47.778;17.806;2023-09-19T05:44:47;4.72;;;1.95;;
47167;SDS011;32931;47.778;17.806;2023-09-19T05:47:13;3.92;;;1.80;;
47167;SDS011;32931;47.778;17.806;2023-09-19T05:49:39;5.15;;;1.95;;
47167;SDS011;32931;47.778;17.806;2023-09-19T05:52:06;4.70;;;1.75;;
47167;SDS011;32931;47.778;17.806;2023-09-19T05:54:33;6.55;;;1.88;;
47167;SDS011;32931;47.778;17.806;2023-09-19T05:57:02;5.43;;;1.88;;
47167;SDS011;32931;47.778;17.806;2023-09-19T05:59:28;5.90;;;1.60;;
47167;SDS011;32931;47.778;17.806;2023-09-19T06:01:55;5.18;;;1.75;;
47167;SDS011;32931;47.778;17.806;2023-09-19T06:04:21;3.25;;;1.60;;
47167;SDS011;32931;47.778;17.806;2023-09-19T06:06:47;6.68;;;2.08;;
47167;SDS011;32931;47.778;17.806;2023-09-19T06:09:14;7.45;;;1.98;;
47167;SDS011;32931;47.778;17.806;2023-09-19T06:11:43;5.15;;;1.58;;
47167;SDS011;32931;47.778;17.806;2023-09-19T06:14:09;3.95;;;1.67;;
47167;SDS011;32931;47.778;17.806;2023-09-19T06:16:36;5.72;;;1.90;;
47167;SDS011;32931;47.778;17.806;2023-09-19T06:19:03;4.85;;;1.50;;
47167;SDS011;32931;47.778;17.806;2023-09-19T06:21:34;7.47;;;1.80;;
47167;SDS011;32931;47.778;17.806;2023-09-19T06:24:00;4.80;;;1.90;;
47167;SDS011;32931;47.778;17.806;2023-09-19T06:26:26;6.35;;;1.42;;
47167;SDS011;32931;47.778;17.806;2023-09-19T06:28:52;2.60;;;1.50;;
47167;SDS011;32931;47.778;17.806;2023-09-19T06:31:19;11.40;;;1.58;;
47167;SDS011;32931;47.778;17.806;2023-09-19T06:33:48;6.32;;;1.55;;
47167;SDS011;32931;47.778;17.806;2023-09-19T06:36:14;8.75;;;1.90;;
47167;SDS011;32931;47.778;17.806;2023-09-19T06:38:40;9.63;;;2.08;;
47167;SDS011;32931;47.778;17.806;2023-09-19T06:41:06;5.03;;;1.88;;
47167;SDS011;32931;47.778;17.806;2023-09-19T06:43:34;7.47;;;1.88;;
47167;SDS011;32931;47.778;17.806;2023-09-19T06:46:02;4.60;;;1.70;;
47167;SDS011;32931;47.778;17.806;2023-09-19T06:48:29;6.18;;;1.92;;
47167;SDS011;32931;47.778;17.806;2023-09-19T06:50:56;4.22;;;1.75;;
47167;SDS011;32931;47.778;17.806;2023-09-19T06:53:24;7.85;;;1.70;;
47167;SDS011;32931;47.778;17.806;2023-09-19T06:55:50;4.72;;;2.00;;
47167;SDS011;32931;47.778;17.806;2023-09-19T06:58:16;6.20;;;1.70;;
47167;SDS011;32931;47.778;17.806;2023-09-19T07:00:43;5.18;;;1.75;;
47167;SDS011;32931;47.778;17.806;2023-09-19T07:03:10;9.43;;;1.70;;
47167;SDS011;32931;47.778;17.806;2023-09-19T07:05:39;4.57;;;1.50;;
47167;SDS011;32931;47.778;17.806;2023-09-19T07:08:06;6.20;;;1.60;;
47167;SDS011;32931;47.778;17.806;2023-09-19T07:10:36;7.18;;;1.73;;
47167;SDS011;32931;47.778;17.806;2023-09-19T07:13:03;4.78;;;1.88;;
47167;SDS011;32931;47.778;17.806;2023-09-19T07:15:35;6.22;;;1.67;;
47167;SDS011;32931;47.778;17.806;2023-09-19T07:18:04;9.32;;;2.08;;
47167;SDS011;32931;47.778;17.806;2023-09-19T07:20:31;6.82;;;1.48;;
47167;SDS011;32931;47.778;17.806;2023-09-19T07:22:58;11.05;;;1.75;;
47167;SDS011;32931;47.778;17.806;2023-09-19T07:25:27;8.93;;;1.80;;
47167;SDS011;32931;47.778;17.806;2023-09-19T07:27:57;5.10;;;1.77;;
47167;SDS011;32931;47.778;17.806;2023-09-19T07:30:25;6.53;;;1.83;;
47167;SDS011;32931;47.778;17.806;2023-09-19T07:32:52;10.25;;;1.98;;
47167;SDS011;32931;47.778;17.806;2023-09-19T07:35:18;4.55;;;1.70;;
47167;SDS011;32931;47.778;17.806;2023-09-19T07:37:48;4.35;;;1.60;;
47167;SDS011;32931;47.778;17.806;2023-09-19T07:40:15;4.97;;;1.50;;
47167;SDS011;32931;47.778;17.806;2023-09-19T07:42:41;3.97;;;1.52;;
47167;SDS011;32931;47.778;17.806;2023-09-19T07:45:10;8.68;;;1.67;;
47167;SDS011;32931;47.778;17.806;2023-09-19T07:47:46;4.35;;;1.33;;
47167;SDS011;32931;47.778;17.806;2023-09-19T07:50:13;3.13;;;1.40;;
47167;SDS011;32931;47.778;17.806;2023-09-19T07:52:41;6.00;;;1.70;;
47167;SDS011;32931;47.778;17.806;2023-09-19T07:55:08;6.97;;;1.75;;
47167;SDS011;32931;47.778;17.806;2023-09-19T07:57:37;12.10;;;2.10;;
47167;SDS011;32931;47.778;17.806;2023-09-19T08:00:03;6.32;;;1.80;;
47167;SDS011;32931;47.778;17.806;2023-09-19T08:02:34;5.32;;;1.75;;
47167;SDS011;32931;47.778;17.806;2023-09-19T08:05:00;6.65;;;1.77;;
47167;SDS011;32931;47.778;17.806;2023-09-19T08:07:32;7.38;;;2.30;;
47167;SDS011;32931;47.778;17.806;2023-09-19T08:09:58;4.85;;;1.70;;
47167;SDS011;32931;47.778;17.806;2023-09-19T08:12:24;8.75;;;1.70;;
47167;SDS011;32931;47.778;17.806;2023-09-19T08:14:50;6.43;;;2.03;;
47167;SDS011;32931;47.778;17.806;2023-09-19T08:17:17;4.65;;;1.80;;
47167;SDS011;32931;47.778;17.806;2023-09-19T08:19:43;5.85;;;1.90;;
47167;SDS011;32931;47.778;17.806;2023-09-19T08:22:11;9.50;;;1.75;;
47167;SDS011;32931;47.778;17.806;2023-09-19T08:24:38;10.02;;;2.15;;
47167;SDS011;32931;47.778;17.806;2023-09-19T08:27:04;4.90;;;1.83;;
47167;SDS011;32931;47.778;17.806;2023-09-19T08:29:33;4.43;;;1.95;;
47167;SDS011;32931;47.778;17.806;2023-09-19T08:32:00;4.10;;;1.90;;
47167;SDS011;32931;47.778;17.806;2023-09-19T08:34:26;4.78;;;1.90;;
47167;SDS011;32931;47.778;17.806;2023-09-19T08:36:53;7.43;;;2.22;;
47167;SDS011;32931;47.778;17.806;2023-09-19T08:39:23;9.43;;;2.17;;
47167;SDS011;32931;47.778;17.806;2023-09-19T08:41:59;4.00;;;2.00;;
47167;SDS011;32931;47.778;17.806;2023-09-19T08:44:27;6.60;;;2.33;;
47167;SDS011;32931;47.778;17.806;2023-09-19T08:46:59;7.70;;;2.30;;
47167;SDS011;32931;47.778;17.806;2023-09-19T08:49:53;9.13;;;2.22;;
47167;SDS011;32931;47.778;17.806;2023-09-19T08:52:25;9.45;;;2.40;;
47167;SDS011;32931;47.778;17.806;2023-09-19T08:54:58;4.47;;;2.10;;
47167;SDS011;32931;47.778;17.806;2023-09-19T09:00:00;8.90;;;2.50;;
47167;SDS011;32931;47.778;17.806;2023-09-19T09:02:31;6.45;;;2.38;;
47167;SDS011;32931;47.778;17.806;2023-09-19T09:04:59;6.47;;;2.30;;
47167;SDS011;32931;47.778;17.806;2023-09-19T09:07:26;6.90;;;1.98;;
47167;SDS011;32931;47.778;17.806;2023-09-19T09:09:54;7.15;;;2.10;;
47167;SDS011;32931;47.778;17.806;2023-09-19T09:12:20;13.35;;;2.35;;
47167;SDS011;32931;47.778;17.806;2023-09-19T09:14:47;7.97;;;3.33;;
47167;SDS011;32931;47.778;17.806;2023-09-19T09:17:17;9.77;;;2.78;;
47167;SDS011;32931;47.778;17.806;2023-09-19T09:19:48;11.05;;;2.58;;
47167;SDS011;32931;47.778;17.806;2023-09-19T09:22:14;6.13;;;2.05;;
47167;SDS011;32931;47.778;17.806;2023-09-19T09:24:58;6.20;;;2.25;;
47167;SDS011;32931;47.778;17.806;2023-09-19T09:27:29;8.35;;;2.33;;
47167;SDS011;32931;47.778;17.806;2023-09-19T09:29:56;8.88;;;2.63;;
47167;SDS011;32931;47.778;17.806;2023-09-19T09:32:23;6.97;;;2.50;;
47167;SDS011;32931;47.778;17.806;2023-09-19T09:34:52;9.98;;;2.20;;
47167;SDS011;32931;47.778;17.806;2023-09-19T09:37:20;8.27;;;2.28;;
47167;SDS011;32931;47.778;17.806;2023-09-19T09:39:51;7.25;;;2.30;;
47167;SDS011;32931;47.778;17.806;2023-09-19T09:42:34;7.90;;;2.28;;
47167;SDS011;32931;47.778;17.806;2023-09-19T09:48:04;5.03;;;2.20;;
47167;SDS011;32931;47.778;17.806;2023-09-19T09:50:45;9.85;;;2.20;;
47167;SDS011;32931;47.778;17.806;2023-09-19T09:53:22;10.95;;;2.97;;
47167;SDS011;32931;47.778;17.806;2023-09-19T09:56:03;8.30;;;2.35;;
47167;SDS011;32931;47.778;17.806;2023-09-19T09:58:50;8.52;;;2.63;;
47167;SDS011;32931;47.778;17.806;2023-09-19T10:01:20;4.00;;;2.45;;
47167;SDS011;32931;47.778;17.806;2023-09-19T10:03:46;8.93;;;2.42;;
47167;SDS011;32931;47.778;17.806;2023-09-19T10:06:14;4.55;;;2.38;;
47167;SDS011;32931;47.778;17.806;2023-09-19T10:11:45;6.13;;;2.90;;
47167;SDS011;32931;47.778;17.806;2023-09-19T10:14:16;7.93;;;2.78;;
47167;SDS011;32931;47.778;17.806;2023-09-19T10:16:48;11.90;;;2.83;;
47167;SDS011;32931;47.778;17.806;2023-09-19T10:19:24;8.93;;;3.03;;
47167;SDS011;32931;47.778;17.806;2023-09-19T10:22:12;9.13;;;3.10;;
47167;SDS011;32931;47.778;17.806;2023-09-19T10:24:46;6.07;;;3.17;;
47167;SDS011;32931;47.778;17.806;2023-09-19T10:27:18;9.07;;;3.30;;
47167;SDS011;32931;47.778;17.806;2023-09-19T10:29:46;10.52;;;3.45;;
47167;SDS011;32931;47.778;17.806;2023-09-19T10:32:16;6.95;;;3.10;;
47167;SDS011;32931;47.778;17.806;2023-09-19T10:34:43;6.75;;;3.03;;
47167;SDS011;32931;47.778;17.806;2023-09-19T10:37:13;8.30;;;2.90;;
47167;SDS011;32931;47.778;17.806;2023-09-19T10:39:41;9.13;;;2.75;;
47167;SDS011;32931;47.778;17.806;2023-09-19T10:42:12;6.55;;;2.80;;
47167;SDS011;32931;47.778;17.806;2023-09-19T10:44:42;11.00;;;2.83;;
47167;SDS011;32931;47.778;17.806;2023-09-19T10:47:12;9.45;;;3.05;;
47167;SDS011;32931;47.778;17.806;2023-09-19T10:49:46;9.43;;;3.20;;
47167;SDS011;32931;47.778;17.806;2023-09-19T10:52:17;11.93;;;3.08;;
47167;SDS011;32931;47.778;17.806;2023-09-19T10:54:49;11.85;;;2.50;;
47167;SDS011;32931;47.778;17.806;2023-09-19T10:57:21;5.32;;;2.63;;
47167;SDS011;32931;47.778;17.806;2023-09-19T11:03:16;9.45;;;3.13;;
47167;SDS011;32931;47.778;17.806;2023-09-19T11:06:06;8.00;;;2.45;;
47167;SDS011;32931;47.778;17.806;2023-09-19T11:30:47;4.55;;;2.30;;
47167;SDS011;32931;47.778;17.806;2023-09-19T11:36:07;7.10;;;2.10;;
47167;SDS011;32931;47.778;17.806;2023-09-19T11:49:19;5.63;;;1.70;;
47167;SDS011;32931;47.778;17.806;2023-09-19T11:51:57;8.40;;;1.85;;
47167;SDS011;32931;47.778;17.806;2023-09-19T11:54:30;6.43;;;1.70;;
47167;SDS011;32931;47.778;17.806;2023-09-19T11:56:57;10.68;;;2.10;;
47167;SDS011;32931;47.778;17.806;2023-09-19T11:59:31;4.40;;;1.50;;
47167;SDS011;32931;47.778;17.806;2023-09-19T12:02:03;3.28;;;1.50;;
47167;SDS011;32931;47.778;17.806;2023-09-19T12:07:15;4.18;;;1.80;;
47167;SDS011;32931;47.778;17.806;2023-09-19T12:12:24;5.97;;;1.70;;
47167;SDS011;32931;47.778;17.806;2023-09-19T12:14:53;6.18;;;1.73;;
47167;SDS011;32931;47.778;17.806;2023-09-19T12:17:20;5.38;;;1.70;;
47167;SDS011;32931;47.778;17.806;2023-09-19T12:19:50;7.43;;;1.70;;
47167;SDS011;32931;47.778;17.806;2023-09-19T12:22:21;4.82;;;1.73;;
47167;SDS011;32931;47.778;17.806;2023-09-19T12:24:47;3.63;;;1.40;;
47167;SDS011;32931;47.778;17.806;2023-09-19T12:27:14;6.05;;;1.85;;
47167;SDS011;32931;47.778;17.806;2023-09-19T12:29:44;4.30;;;1.60;;
47167;SDS011;32931;47.778;17.806;2023-09-19T12:32:12;5.80;;;1.70;;
47167;SDS011;32931;47.778;17.806;2023-09-19T12:34:38;7.95;;;1.65;;
47167;SDS011;32931;47.778;17.806;2023-09-19T12:37:13;3.33;;;1.40;;
47167;SDS011;32931;47.778;17.806;2023-09-19T12:39:50;5.63;;;1.73;;
47167;SDS011;32931;47.778;17.806;2023-09-19T12:42:22;6.40;;;1.85;;
47167;SDS011;32931;47.778;17.806;2023-09-19T12:44:53;5.95;;;1.27;;
47167;SDS011;32931;47.778;17.806;2023-09-19T12:47:23;4.15;;;1.60;;
47167;SDS011;32931;47.778;17.806;2023-09-19T12:50:05;4.10;;;1.50;;
47167;SDS011;32931;47.778;17.806;2023-09-19T12:52:46;3.95;;;1.70;;
47167;SDS011;32931;47.778;17.806;2023-09-19T12:55:21;7.85;;;1.58;;
47167;SDS011;32931;47.778;17.806;2023-09-19T13:00:32;5.43;;;1.83;;
47167;SDS011;32931;47.778;17.806;2023-09-19T13:05:57;4.28;;;1.50;;
47167;SDS011;32931;47.778;17.806;2023-09-19T13:13:41;8.43;;;1.85;;
47167;SDS011;32931;47.778;17.806;2023-09-19T13:16:07;3.53;;;1.42;;
47167;SDS011;32931;47.778;17.806;2023-09-19T13:21:13;3.85;;;1.65;;
47167;SDS011;32931;47.778;17.806;2023-09-19T13:23:53;2.95;;;1.60;;
47167;SDS011;32931;47.778;17.806;2023-09-19T13:26:27;5.03;;;1.73;;
47167;SDS011;32931;47.778;17.806;2023-09-19T13:28:56;6.53;;;1.40;;
47167;SDS011;32931;47.778;17.806;2023-09-19T13:31:22;2.70;;;1.52;;
47167;SDS011;32931;47.778;17.806;2023-09-19T13:33:49;3.78;;;1.50;;
47167;SDS011;32931;47.778;17.806;2023-09-19T13:36:15;7.55;;;1.90;;
47167;SDS011;32931;47.778;17.806;2023-09-19T13:38:44;3.92;;;1.50;;
47167;SDS011;32931;47.778;17.806;2023-09-19T13:41:10;4.57;;;1.23;;
47167;SDS011;32931;47.778;17.806;2023-09-19T13:43:37;6.43;;;1.23;;
47167;SDS011;32931;47.778;17.806;2023-09-19T13:46:04;5.65;;;1.70;;
47167;SDS011;32931;47.778;17.806;2023-09-19T13:48:33;3.33;;;1.58;;
47167;SDS011;32931;47.778;17.806;2023-09-19T13:51:03;5.47;;;1.45;;
47167;SDS011;32931;47.778;17.806;2023-09-19T13:53:30;4.75;;;1.60;;
47167;SDS011;32931;47.778;17.806;2023-09-19T13:55:56;3.65;;;1.67;;
47167;SDS011;32931;47.778;17.806;2023-09-19T13:58:22;6.20;;;1.77;;
47167;SDS011;32931;47.778;17.806;2023-09-19T14:00:49;6.18;;;1.63;;
47167;SDS011;32931;47.778;17.806;2023-09-19T14:03:16;8.18;;;1.60;;
47167;SDS011;32931;47.778;17.806;2023-09-19T14:05:42;6.03;;;1.45;;
47167;SDS011;32931;47.778;17.806;2023-09-19T14:08:08;5.10;;;1.80;;
47167;SDS011;32931;47.778;17.806;2023-09-19T14:10:34;6.10;;;1.40;;
47167;SDS011;32931;47.778;17.806;2023-09-19T14:13:00;5.85;;;1.80;;
47167;SDS011;32931;47.778;17.806;2023-09-19T14:15:27;4.25;;;1.40;;
47167;SDS011;32931;47.778;17.806;2023-09-19T14:17:58;3.38;;;1.63;;
47167;SDS011;32931;47.778;17.806;2023-09-19T14:20:26;3.70;;;1.52;;
47167;SDS011;32931;47.778;17.806;2023-09-19T14:22:53;4.07;;;1.40;;
47167;SDS011;32931;47.778;17.806;2023-09-19T14:25:20;3.83;;;1.52;;
47167;SDS011;32931;47.778;17.806;2023-09-19T14:27:47;4.88;;;1.73;;
47167;SDS011;32931;47.778;17.806;2023-09-19T14:30:13;6.32;;;1.80;;
47167;SDS011;32931;47.778;17.806;2023-09-19T14:32:40;3.03;;;1.38;;
47167;SDS011;32931;47.778;17.806;2023-09-19T14:35:07;6.25;;;1.83;;
47167;SDS011;32931;47.778;17.806;2023-09-19T14:37:35;3.70;;;1.20;;
47167;SDS011;32931;47.778;17.806;2023-09-19T14:40:01;4.85;;;1.50;;
47167;SDS011;32931;47.778;17.806;2023-09-19T14:42:28;4.03;;;1.40;;
47167;SDS011;32931;47.778;17.806;2023-09-19T14:44:55;5.32;;;1.40;;
47167;SDS011;32931;47.778;17.806;2023-09-19T14:47:21;4.55;;;1.40;;
47167;SDS011;32931;47.778;17.806;2023-09-19T14:49:49;5.90;;;1.67;;
47167;SDS011;32931;47.778;17.806;2023-09-19T14:52:15;3.88;;;1.42;;
47167;SDS011;32931;47.778;17.806;2023-09-19T14:54:41;5.68;;;1.15;;
47167;SDS011;32931;47.778;17.806;2023-09-19T14:57:07;4.28;;;1.05;;
47167;SDS011;32931;47.778;17.806;2023-09-19T14:59:34;8.95;;;1.70;;
47167;SDS011;32931;47.778;17.806;2023-09-19T15:02:04;5.50;;;1.55;;
47167;SDS011;32931;47.778;17.806;2023-09-19T15:04:30;3.95;;;1.40;;
47167;SDS011;32931;47.778;17.806;2023-09-19T15:06:56;8.55;;;1.70;;
47167;SDS011;32931;47.778;17.806;2023-09-19T15:09:23;5.45;;;1.80;;
47167;SDS011;32931;47.778;17.806;2023-09-19T15:11:52;3.92;;;1.48;;
47167;SDS011;32931;47.778;17.806;2023-09-19T15:14:19;6.20;;;1.50;;
47167;SDS011;32931;47.778;17.806;2023-09-19T15:16:45;3.20;;;1.30;;
47167;SDS011;32931;47.778;17.806;2023-09-19T15:19:11;4.22;;;1.20;;
47167;SDS011;32931;47.778;17.806;2023-09-19T15:21:37;4.72;;;1.40;;
47167;SDS011;32931;47.778;17.806;2023-09-19T15:24:04;3.72;;;1.17;;
47167;SDS011;32931;47.778;17.806;2023-09-19T15:26:30;2.80;;;1.20;;
47167;SDS011;32931;47.778;17.806;2023-09-19T15:28:56;3.85;;;1.40;;
47167;SDS011;32931;47.778;17.806;2023-09-19T15:31:23;6.45;;;1.30;;
47167;SDS011;32931;47.778;17.806;2023-09-19T15:33:49;4.15;;;1.17;;
47167;SDS011;32931;47.778;17.806;2023-09-19T15:36:15;6.18;;;1.42;;
47167;SDS011;32931;47.778;17.806;2023-09-19T15:41:25;2.75;;;1.05;;
47167;SDS011;32931;47.778;17.806;2023-09-19T15:43:54;3.78;;;1.15;;
47167;SDS011;32931;47.778;17.806;2023-09-19T15:46:21;3.83;;;0.90;;
47167;SDS011;32931;47.778;17.806;2023-09-19T15:48:48;2.05;;;1.00;;
47167;SDS011;32931;47.778;17.806;2023-09-19T15:51:15;1.45;;;0.90;;
47167;SDS011;32931;47.778;17.806;2023-09-19T15:53:42;1.33;;;0.80;;
47167;SDS011;32931;47.778;17.806;2023-09-19T15:56:11;3.85;;;0.90;;
47167;SDS011;32931;47.778;17.806;2023-09-19T15:58:39;2.05;;;1.00;;
47167;SDS011;32931;47.778;17.806;2023-09-19T16:01:06;5.03;;;0.80;;
47167;SDS011;32931;47.778;17.806;2023-09-19T16:03:36;1.80;;;0.80;;
47167;SDS011;32931;47.778;17.806;2023-09-19T16:06:10;2.22;;;0.88;;
47167;SDS011;32931;47.778;17.806;2023-09-19T16:08:40;4.45;;;0.90;;